createdAt,value
2022-11-23T00:01:33.947Z,1.47
2022-11-23T00:04:07.409Z,1.41
2022-11-23T00:06:35.800Z,1.41
2022-11-23T00:09:04.070Z,1.37
2022-11-23T00:11:34.924Z,1.45
2022-11-23T00:14:02.676Z,1.46
2022-11-23T00:16:31.307Z,1.45
2022-11-23T00:19:01.679Z,1.49
2022-11-23T00:21:32.784Z,1.52
2022-11-23T00:24:00.458Z,1.62
2022-11-23T00:26:27.968Z,1.69
2022-11-23T00:28:55.774Z,1.75
2022-11-23T00:31:27.701Z,1.65
2022-11-23T00:33:57.663Z,1.51
2022-11-23T00:36:27.404Z,1.52
2022-11-23T00:38:55.881Z,1.57
2022-11-23T00:41:25.985Z,1.56
2022-11-23T00:43:53.731Z,1.56
2022-11-23T00:46:24.230Z,1.60
2022-11-23T00:48:55.204Z,1.50
2022-11-23T00:51:26.117Z,1.31
2022-11-23T00:53:54.368Z,1.33
2022-11-23T00:56:29.239Z,1.41
2022-11-23T00:58:58.507Z,1.51
2022-11-23T01:01:34.100Z,1.57
2022-11-23T01:04:05.792Z,1.47
2022-11-23T01:06:35.809Z,1.47
2022-11-23T01:09:06.654Z,1.47
2022-11-23T01:11:35.564Z,1.62
2022-11-23T01:14:04.898Z,1.52
2022-11-23T01:16:35.229Z,1.57
2022-11-23T01:19:06.646Z,1.52
2022-11-23T01:21:35.587Z,1.50
2022-11-23T01:24:13.387Z,1.37
2022-11-23T01:26:41.731Z,1.32
2022-11-23T01:29:10.544Z,1.44
2022-11-23T01:31:46.077Z,1.50
2022-11-23T01:34:15.705Z,1.49
2022-11-23T01:36:44.550Z,1.27
2022-11-23T01:39:14.176Z,1.36
2022-11-23T01:41:44.724Z,1.32
2022-11-23T01:44:33.627Z,1.43
2022-11-23T01:47:03.408Z,1.39
2022-11-23T01:49:39.100Z,1.28
2022-11-23T01:52:13.155Z,1.33
2022-11-23T01:54:49.636Z,1.31
2022-11-23T01:57:22.256Z,1.26
2022-11-23T01:59:51.059Z,1.26
2022-11-23T02:02:19.173Z,1.27
2022-11-23T02:04:52.200Z,1.24
2022-11-23T02:07:22.155Z,1.30
2022-11-23T02:09:53.803Z,1.24
2022-11-23T02:24:31.197Z,1.31
2022-11-23T02:27:02.487Z,1.31
2022-11-23T02:29:30.818Z,1.30
2022-11-23T02:32:03.338Z,1.31
2022-11-23T02:34:31.471Z,1.27
2022-11-23T02:37:02.240Z,1.24
2022-11-23T02:39:37.390Z,1.33
2022-11-23T02:42:06.627Z,1.33
2022-11-23T02:44:48.947Z,1.29
2022-11-23T02:47:17.447Z,1.31
2022-11-23T02:49:49.565Z,1.32
2022-11-23T02:52:18.947Z,1.30
2022-11-23T02:54:46.681Z,1.30
2022-11-23T02:57:15.547Z,1.44
2022-11-23T02:59:47.016Z,1.40
2022-11-23T03:02:14.578Z,1.41
2022-11-23T03:04:42.314Z,1.41
2022-11-23T03:07:11.279Z,1.45
2022-11-23T03:09:40.440Z,1.47
2022-11-23T03:12:08.943Z,1.59
2022-11-23T03:14:38.781Z,1.68
2022-11-23T03:17:06.441Z,1.72
2022-11-23T03:19:40.622Z,1.63
2022-11-23T03:22:10.201Z,1.72
2022-11-23T03:24:39.547Z,1.68
2022-11-23T03:27:11.970Z,1.68
2022-11-23T03:29:41.142Z,1.85
2022-11-23T03:32:16.558Z,1.88
2022-11-23T03:34:47.631Z,1.99
2022-11-23T03:37:16.972Z,1.80
2022-11-23T03:39:47.541Z,1.78
2022-11-23T03:42:41.084Z,1.74
2022-11-23T03:45:10.118Z,1.92
2022-11-23T03:47:38.059Z,1.89
2022-11-23T03:50:06.128Z,1.87
2022-11-23T03:52:35.046Z,1.87
2022-11-23T03:55:03.775Z,1.84
2022-11-23T03:57:32.458Z,1.80
2022-11-23T04:00:02.864Z,1.85
2022-11-23T04:02:41.689Z,1.99
2022-11-23T04:05:28.853Z,2.11
2022-11-23T04:08:15.015Z,1.99
2022-11-23T04:10:43.257Z,2.02
2022-11-23T04:13:22.541Z,1.85
2022-11-23T04:15:50.525Z,1.79
2022-11-23T04:18:20.622Z,1.79
2022-11-23T04:20:48.381Z,1.84
2022-11-23T04:23:17.530Z,1.86
2022-11-23T04:25:46.391Z,1.84
2022-11-23T04:28:15.881Z,1.86
2022-11-23T04:30:44.637Z,1.87
2022-11-23T04:33:13.107Z,1.92
2022-11-23T04:35:40.629Z,1.88
2022-11-23T04:38:08.385Z,1.82
2022-11-23T04:40:38.334Z,1.80
2022-11-23T04:43:09.675Z,1.83
2022-11-23T04:45:40.063Z,1.84
2022-11-23T04:48:13.719Z,1.90
2022-11-23T04:50:46.648Z,1.91
2022-11-23T04:53:18.600Z,1.88
2022-11-23T04:55:48.018Z,1.89
2022-11-23T04:58:17.731Z,1.88
2022-11-23T05:00:47.643Z,1.86
2022-11-23T05:03:16.419Z,1.91
2022-11-23T05:05:44.274Z,2.02
2022-11-23T05:08:11.870Z,1.85
2022-11-23T05:10:59.648Z,1.89
2022-11-23T05:13:27.819Z,1.86
2022-11-23T05:15:55.406Z,1.91
2022-11-23T05:18:27.041Z,1.86
2022-11-23T05:20:55.022Z,1.91
2022-11-23T05:23:23.066Z,1.94
2022-11-23T05:25:53.243Z,2.03
2022-11-23T05:28:39.743Z,2.02
2022-11-23T05:31:09.185Z,2.04
2022-11-23T05:33:37.944Z,2.06
2022-11-23T05:36:07.367Z,2.09
2022-11-23T05:38:41.291Z,2.13
2022-11-23T05:41:19.023Z,2.10
2022-11-23T05:43:47.841Z,2.14
2022-11-23T05:46:22.657Z,2.24
2022-11-23T05:48:50.344Z,2.23
2022-11-23T05:51:18.100Z,2.31
2022-11-23T05:53:48.470Z,2.31
2022-11-23T05:56:26.065Z,2.28
2022-11-23T05:59:16.774Z,2.22
2022-11-23T06:01:52.638Z,2.03
2022-11-23T06:04:31.663Z,1.99
2022-11-23T06:07:03.318Z,2.13
2022-11-23T06:09:40.892Z,2.06
2022-11-23T06:12:12.669Z,2.10
2022-11-23T06:14:42.537Z,2.18
2022-11-23T06:17:11.064Z,2.03
2022-11-23T06:20:18.781Z,2.12
2022-11-23T06:22:55.302Z,2.25
2022-11-23T06:25:25.035Z,2.09
2022-11-23T06:28:07.779Z,2.01
2022-11-23T06:30:41.821Z,2.10
2022-11-23T06:33:09.911Z,2.17
2022-11-23T06:35:53.950Z,2.16
2022-11-23T06:38:22.534Z,2.08
2022-11-23T06:41:02.029Z,2.11
2022-11-23T06:43:32.087Z,2.09
2022-11-23T06:46:04.865Z,2.13
2022-11-23T06:48:34.435Z,2.13
2022-11-23T06:51:02.554Z,2.11
2022-11-23T06:53:33.687Z,2.14
2022-11-23T06:56:05.771Z,2.33
2022-11-23T06:58:35.161Z,2.40
2022-11-23T07:01:08.938Z,2.42
2022-11-23T07:03:42.560Z,2.53
2022-11-23T07:06:21.794Z,2.38
2022-11-23T07:08:55.435Z,2.29
2022-11-23T07:11:49.225Z,2.29
2022-11-23T07:14:18.148Z,2.26
2022-11-23T07:16:48.222Z,2.33
2022-11-23T07:19:16.109Z,2.33
2022-11-23T07:21:45.608Z,2.31
2022-11-23T07:24:14.682Z,2.31
2022-11-23T07:26:42.451Z,2.18
2022-11-23T07:29:11.079Z,2.06
2022-11-23T07:31:39.241Z,2.12
2022-11-23T07:34:09.221Z,2.16
2022-11-23T07:36:37.101Z,2.14
2022-11-23T07:39:04.709Z,2.14
2022-11-23T07:41:33.242Z,2.22
2022-11-23T07:44:14.678Z,2.27
2022-11-23T07:46:42.631Z,2.23
2022-11-23T07:49:10.272Z,2.26
2022-11-23T07:51:38.119Z,2.39
2022-11-23T07:54:05.950Z,2.42
2022-11-23T07:56:33.570Z,2.32
2022-11-23T07:59:01.116Z,2.32
2022-11-23T08:01:29.333Z,2.48
2022-11-23T08:03:57.738Z,2.70
2022-11-23T08:06:25.306Z,2.95
2022-11-23T08:08:56.955Z,2.97
2022-11-23T08:11:24.927Z,2.84
2022-11-23T08:13:52.575Z,2.81
2022-11-23T08:16:20.405Z,2.74
2022-11-23T08:18:50.796Z,2.64
2022-11-23T08:21:18.561Z,2.68
2022-11-23T08:23:46.222Z,2.73
2022-11-23T08:26:14.605Z,2.47
2022-11-23T08:28:42.456Z,2.40
2022-11-23T08:31:14.641Z,2.53
2022-11-23T08:33:42.466Z,2.63
2022-11-23T08:36:10.834Z,2.65
2022-11-23T08:38:38.566Z,2.58
2022-11-23T08:41:07.059Z,2.66
2022-11-23T08:43:35.715Z,2.66
2022-11-23T08:46:09.359Z,2.77
2022-11-23T08:48:38.759Z,2.79
2022-11-23T08:51:08.599Z,2.81
2022-11-23T08:53:36.454Z,2.92
2022-11-23T08:56:06.290Z,2.79
2022-11-23T08:58:34.565Z,2.63
2022-11-23T09:01:02.560Z,2.57
2022-11-23T09:03:31.141Z,2.72
2022-11-23T09:06:01.511Z,2.68
2022-11-23T09:08:29.761Z,2.74
2022-11-23T09:11:06.260Z,2.92
2022-11-23T09:13:38.307Z,2.79
2022-11-23T09:16:10.419Z,2.90
2022-11-23T09:18:39.205Z,3.01
2022-11-23T09:21:06.952Z,3.01
2022-11-23T09:23:34.847Z,2.89
2022-11-23T09:26:04.685Z,2.89
2022-11-23T09:28:33.363Z,2.94
2022-11-23T09:31:04.508Z,3.07
2022-11-23T09:33:32.219Z,3.28
2022-11-23T09:36:01.714Z,3.21
2022-11-23T09:38:54.634Z,3.25
2022-11-23T09:41:37.928Z,3.29
2022-11-23T09:44:17.853Z,3.18
2022-11-23T09:47:04.269Z,3.17
2022-11-23T09:49:54.170Z,3.29
2022-11-23T09:52:24.240Z,3.43
2022-11-23T09:55:01.145Z,3.42
2022-11-23T09:57:32.463Z,3.47
2022-11-23T10:00:17.746Z,3.34
2022-11-23T10:02:47.381Z,3.15
2022-11-23T10:05:20.544Z,3.17
2022-11-23T10:08:13.116Z,3.21
2022-11-23T10:10:44.637Z,3.29
2022-11-23T10:13:38.495Z,3.10
2022-11-23T10:16:12.532Z,3.16
2022-11-23T10:18:43.573Z,3.18
2022-11-23T10:21:38.684Z,3.21
2022-11-23T10:24:19.435Z,3.29
2022-11-23T10:26:49.623Z,3.23
2022-11-23T10:29:27.127Z,3.23
2022-11-23T10:31:58.407Z,3.22
2022-11-23T10:34:50.939Z,3.08
2022-11-23T10:37:19.586Z,3.04
2022-11-23T10:39:47.249Z,3.00
2022-11-23T10:42:26.101Z,2.98
2022-11-23T10:44:56.194Z,2.96
2022-11-23T10:47:53.054Z,2.99
2022-11-23T10:50:23.795Z,3.13
2022-11-23T10:52:54.377Z,3.19
2022-11-23T10:55:29.445Z,3.08
2022-11-23T10:57:57.934Z,3.06
2022-11-23T11:00:30.890Z,3.18
2022-11-23T11:03:23.772Z,3.17
2022-11-23T11:08:57.209Z,3.23
2022-11-23T11:11:30.680Z,3.13
2022-11-23T11:14:23.452Z,3.07
2022-11-23T11:16:54.028Z,3.19
2022-11-23T11:19:31.756Z,3.29
2022-11-23T11:22:01.869Z,3.18
2022-11-23T11:24:44.576Z,3.10
2022-11-23T11:27:15.965Z,3.21
2022-11-23T11:29:45.507Z,3.27
2022-11-23T11:32:39.631Z,3.20
2022-11-23T11:35:23.410Z,3.12
2022-11-23T11:37:55.975Z,3.15
2022-11-23T11:40:24.307Z,3.20
2022-11-23T11:42:58.076Z,3.23
2022-11-23T11:45:31.568Z,3.13
2022-11-23T11:48:07.323Z,3.28
2022-11-23T11:50:41.961Z,3.25
2022-11-23T11:53:19.416Z,3.24
2022-11-23T11:55:51.095Z,3.15
2022-11-23T11:58:22.751Z,3.16
2022-11-23T12:00:53.660Z,3.23
2022-11-23T12:03:27.262Z,3.33
2022-11-23T12:06:03.366Z,3.43
2022-11-23T12:08:56.016Z,3.43
2022-11-23T12:11:24.085Z,3.72
2022-11-23T12:14:01.974Z,3.78
2022-11-23T12:17:24.760Z,3.70
2022-11-23T12:19:44.636Z,3.68
2022-11-23T12:22:33.265Z,3.74
2022-11-23T12:25:21.114Z,3.82
2022-11-23T12:28:10.702Z,3.72
2022-11-23T20:19:36.060Z,2.18
2022-11-23T20:22:10.476Z,2.13
2022-11-23T20:24:40.390Z,2.21
2022-11-23T20:27:09.715Z,2.25
2022-11-23T20:29:38.895Z,2.25
2022-11-23T20:32:08.352Z,2.29
2022-11-23T20:34:37.474Z,2.21
2022-11-23T20:37:07.105Z,2.26
2022-11-23T20:39:37.835Z,2.25
2022-11-23T20:42:11.272Z,2.37
2022-11-23T20:44:40.993Z,2.45
2022-11-23T20:47:10.130Z,2.37
2022-11-23T20:49:38.946Z,2.39
2022-11-23T20:52:07.716Z,2.37
2022-11-23T20:54:37.685Z,2.39
2022-11-23T20:57:09.038Z,2.38
2022-11-23T20:59:38.090Z,2.33
2022-11-23T21:02:06.740Z,2.38
2022-11-23T21:04:36.944Z,2.48
2022-11-23T21:07:05.655Z,2.43
2022-11-23T21:09:34.322Z,2.44
2022-11-23T21:12:22.186Z,2.38
2022-11-23T21:14:50.971Z,2.45
2022-11-23T21:17:19.937Z,2.52
2022-11-23T21:19:48.993Z,2.57
2022-11-23T21:22:19.570Z,2.48
2022-11-23T21:24:49.539Z,2.53
2022-11-23T21:27:23.734Z,2.54
2022-11-23T21:29:53.437Z,2.45
2022-11-23T21:32:22.197Z,2.43
2022-11-23T21:34:52.426Z,2.50
2022-11-23T21:37:22.314Z,2.51
2022-11-23T21:39:53.182Z,2.43
2022-11-23T21:42:22.246Z,2.40
2022-11-23T21:44:50.873Z,2.41
2022-11-23T21:47:20.021Z,2.54
2022-11-23T21:49:53.720Z,2.60
2022-11-23T21:52:23.377Z,2.52
2022-11-23T21:54:51.823Z,2.43
2022-11-23T21:57:20.721Z,2.34
2022-11-23T21:59:49.514Z,2.33
2022-11-23T22:02:18.672Z,2.29
2022-11-23T22:04:47.682Z,2.34
2022-11-23T22:07:18.996Z,2.35
2022-11-23T22:09:48.619Z,2.35
2022-11-23T22:12:17.991Z,2.41
2022-11-23T22:14:51.326Z,2.43
2022-11-23T22:17:20.339Z,2.50
2022-11-23T22:19:49.601Z,2.50
2022-11-23T22:22:18.282Z,2.62
2022-11-23T22:24:46.932Z,2.57
